createdAt,value
2022-08-20T00:01:02.192Z,7.90
2022-08-20T00:06:17.232Z,7.93
2022-08-20T00:11:25.175Z,7.60
2022-08-20T00:16:32.794Z,8.63
2022-08-20T00:26:36.969Z,8.45
2022-08-20T00:31:54.091Z,8.57
2022-08-20T00:36:55.976Z,7.43
2022-08-20T00:41:58.036Z,8.55
2022-08-20T00:47:00.285Z,7.07
2022-08-20T00:52:09.398Z,8.63
2022-08-20T00:57:55.769Z,7.85
2022-08-20T01:02:57.733Z,7.97
2022-08-20T01:07:59.631Z,9.57
2022-08-20T01:13:11.226Z,8.57
2022-08-20T01:18:16.630Z,9.07
2022-08-20T01:23:32.706Z,9.18
2022-08-20T01:28:43.769Z,9.15
2022-08-20T01:33:46.595Z,8.95
2022-08-20T01:38:54.168Z,8.32
2022-08-20T01:43:58.806Z,10.25
2022-08-20T01:49:13.555Z,9.90
2022-08-20T01:54:15.745Z,9.00
2022-08-20T01:59:17.553Z,9.75
2022-08-20T02:04:20.203Z,9.85
2022-08-20T02:09:23.234Z,9.35
2022-08-20T02:14:26.619Z,10.07
2022-08-20T02:19:45.268Z,8.80
2022-08-20T02:24:47.457Z,9.77
2022-08-20T02:29:50.371Z,9.95
2022-08-20T02:34:52.309Z,9.52
2022-08-20T02:39:54.241Z,9.38
2022-08-20T02:44:56.182Z,10.63
2022-08-20T02:49:59.749Z,8.93
2022-08-20T02:55:01.770Z,9.60
2022-08-20T03:00:12.807Z,9.18
2022-08-20T03:05:14.975Z,8.57
2022-08-20T03:10:17.412Z,9.18
2022-08-20T03:15:20.521Z,9.18
2022-08-20T03:20:24.023Z,9.95
2022-08-20T03:25:27.080Z,7.97
2022-08-20T03:30:29.498Z,8.63
2022-08-20T03:35:33.193Z,8.52
2022-08-20T03:40:36.518Z,7.53
2022-08-20T03:45:40.560Z,7.72
2022-08-20T03:50:44.167Z,7.35
2022-08-20T03:55:53.883Z,6.78
2022-08-20T04:00:59.039Z,6.72
2022-08-20T04:06:00.986Z,6.63
2022-08-20T04:11:03.083Z,6.38
2022-08-20T04:16:11.304Z,6.15
2022-08-20T04:21:17.026Z,5.43
2022-08-20T04:26:20.022Z,5.10
2022-08-20T04:31:25.579Z,4.72
2022-08-20T04:36:27.761Z,3.55
2022-08-20T04:41:29.683Z,3.80
2022-08-20T04:46:32.843Z,2.60
2022-08-20T04:51:34.890Z,1.77
2022-08-20T04:56:39.897Z,2.08
2022-08-20T05:01:41.925Z,1.80
2022-08-20T05:06:44.668Z,1.95
2022-08-20T05:11:46.518Z,1.75
2022-08-20T05:16:48.554Z,1.23
2022-08-20T05:21:53.800Z,2.13
2022-08-20T05:26:55.860Z,2.67
2022-08-20T05:31:57.722Z,2.28
2022-08-20T05:37:04.531Z,2.60
2022-08-20T05:42:09.691Z,3.42
2022-08-20T05:47:11.584Z,2.95
2022-08-20T05:52:13.456Z,2.30
2022-08-20T05:57:20.218Z,2.90
2022-08-20T06:02:40.937Z,3.07
2022-08-20T06:07:43.454Z,2.58
2022-08-20T06:12:45.590Z,2.72
2022-08-20T06:17:47.462Z,2.90
2022-08-20T06:23:00.645Z,2.90
2022-08-20T06:28:04.258Z,3.30
2022-08-20T06:33:06.838Z,3.63
2022-08-20T06:38:11.446Z,4.00
2022-08-20T06:43:13.605Z,4.88
2022-08-20T06:48:15.729Z,6.85
2022-08-20T06:53:20.960Z,6.95
2022-08-20T06:58:36.175Z,6.88
2022-08-20T07:08:57.868Z,7.45
2022-08-20T07:13:59.959Z,6.70
2022-08-20T07:19:01.862Z,7.28
2022-08-20T07:24:04.162Z,6.75
2022-08-20T07:29:06.132Z,6.68
2022-08-20T07:34:08.418Z,6.00
2022-08-20T07:39:10.373Z,6.93
2022-08-20T07:44:12.413Z,6.85
2022-08-20T07:49:14.255Z,6.43
2022-08-20T07:54:16.101Z,6.28
2022-08-20T07:59:18.201Z,6.70
2022-08-20T08:04:20.133Z,7.07
2022-08-20T08:09:25.439Z,6.10
2022-08-20T08:14:31.639Z,6.78
2022-08-20T08:19:49.428Z,5.85
2022-08-20T08:24:57.313Z,6.32
2022-08-20T08:30:01.393Z,6.30
2022-08-20T08:35:09.360Z,6.57
2022-08-20T08:40:11.827Z,6.28
2022-08-20T08:45:18.363Z,6.05
2022-08-20T08:50:50.036Z,7.20
2022-08-20T08:55:48.886Z,7.17
2022-08-20T09:00:50.983Z,6.32
2022-08-20T09:06:00.477Z,6.18
2022-08-20T09:11:05.417Z,6.82
2022-08-20T09:16:07.537Z,6.63
2022-08-20T09:21:09.855Z,6.88
2022-08-20T09:26:12.272Z,7.57
2022-08-20T09:31:14.598Z,7.75
2022-08-20T09:36:29.006Z,7.80
2022-08-20T09:41:34.849Z,7.53
2022-08-20T09:46:37.051Z,7.93
2022-08-20T09:51:39.125Z,9.18
2022-08-20T09:56:41.227Z,8.75
2022-08-20T10:01:43.229Z,9.35
2022-08-20T10:06:45.820Z,8.75
2022-08-20T10:11:47.761Z,7.95
2022-08-20T10:16:56.199Z,8.68
2022-08-20T10:22:02.415Z,8.82
2022-08-20T10:27:04.759Z,10.10
2022-08-20T10:32:12.536Z,10.07
2022-08-20T10:37:23.499Z,10.15
2022-08-20T10:42:25.336Z,9.55
2022-08-20T10:47:30.125Z,9.73
2022-08-20T10:52:32.288Z,9.35
2022-08-20T10:57:34.818Z,10.82
2022-08-20T11:02:36.836Z,11.35
2022-08-20T11:07:55.356Z,11.20
2022-08-20T11:13:05.407Z,9.77
2022-08-20T11:18:07.684Z,9.63
2022-08-20T11:23:09.656Z,10.30
2022-08-20T11:28:13.037Z,9.85
2022-08-20T11:33:15.891Z,10.70
2022-08-20T11:38:19.850Z,10.63
2022-08-20T11:43:21.657Z,9.63
2022-08-20T11:48:23.700Z,9.60
2022-08-20T11:53:25.806Z,10.65
2022-08-20T11:58:27.900Z,11.13
2022-08-20T12:03:31.137Z,9.75
2022-08-20T12:08:33.072Z,8.93
2022-08-20T12:13:47.397Z,8.52
2022-08-20T12:18:51.068Z,9.23
2022-08-20T12:23:53.041Z,10.43
2022-08-20T12:28:58.991Z,9.15
2022-08-20T12:34:00.841Z,8.82
2022-08-20T12:39:02.942Z,9.15
2022-08-20T12:44:07.298Z,8.57
2022-08-20T12:49:16.485Z,8.90
2022-08-20T12:54:18.545Z,9.05
2022-08-20T12:59:26.054Z,9.15
2022-08-20T13:04:28.357Z,9.07
2022-08-20T13:09:30.627Z,8.77
2022-08-20T13:14:32.670Z,9.43
2022-08-20T13:19:36.614Z,8.60
2022-08-20T13:24:38.755Z,8.15
2022-08-20T13:29:47.879Z,9.18
2022-08-20T13:34:50.926Z,8.68
2022-08-20T13:39:57.294Z,8.23
2022-08-20T13:44:59.186Z,8.25
2022-08-20T13:50:05.398Z,7.60
2022-08-20T13:55:10.804Z,8.98
2022-08-20T14:00:17.003Z,9.02
2022-08-20T14:05:19.319Z,7.10
2022-08-20T14:10:26.984Z,7.88
2022-08-20T14:15:29.679Z,8.40
2022-08-20T14:20:34.348Z,8.07
2022-08-20T14:25:38.685Z,7.03
2022-08-20T14:30:41.098Z,6.97
2022-08-20T14:35:43.238Z,6.53
2022-08-20T14:40:45.321Z,6.82
2022-08-20T14:45:47.323Z,6.07
2022-08-20T14:50:49.165Z,7.63
2022-08-20T14:55:51.089Z,6.80
2022-08-20T15:00:54.188Z,7.72
2022-08-20T15:05:57.697Z,7.13
2022-08-20T15:11:00.245Z,6.65
2022-08-20T15:16:02.892Z,7.47
2022-08-20T15:21:05.085Z,6.78
2022-08-20T15:26:13.068Z,7.47
2022-08-20T15:31:15.484Z,7.18
2022-08-20T15:36:17.489Z,7.22
2022-08-20T15:41:19.424Z,7.28
2022-08-20T15:46:21.322Z,7.85
2022-08-20T15:51:31.739Z,7.63
2022-08-20T15:57:01.798Z,7.55
2022-08-20T16:02:26.061Z,7.75
2022-08-20T16:07:44.321Z,7.35
2022-08-20T16:12:51.718Z,8.48
2022-08-20T16:18:00.733Z,6.85
2022-08-20T16:23:04.281Z,7.07
2022-08-20T16:28:28.266Z,6.80
2022-08-20T16:33:55.382Z,8.02
2022-08-20T16:39:02.774Z,9.50
2022-08-20T16:44:21.510Z,7.80
2022-08-20T16:49:27.496Z,9.15
2022-08-20T16:54:31.219Z,7.47
2022-08-20T16:59:33.792Z,7.50
2022-08-20T17:04:50.447Z,7.07
2022-08-20T17:10:15.099Z,7.28
2022-08-20T17:15:30.659Z,7.03
2022-08-20T17:20:46.000Z,7.90
2022-08-20T17:26:17.222Z,8.52
2022-08-20T17:31:48.301Z,7.57
2022-08-20T17:37:08.178Z,8.60
2022-08-20T17:42:18.024Z,8.55
2022-08-20T17:47:25.462Z,8.60
2022-08-20T17:57:38.210Z,8.77
2022-08-20T18:02:40.816Z,8.57
2022-08-20T18:07:51.698Z,9.13
2022-08-20T18:13:00.537Z,8.98
2022-08-20T18:18:11.004Z,8.80
2022-08-20T18:23:47.641Z,8.70
2022-08-20T18:28:59.595Z,9.07
2022-08-20T18:34:12.713Z,9.35
2022-08-20T18:39:36.314Z,9.05
2022-08-20T18:44:41.477Z,8.40
2022-08-20T18:49:47.304Z,9.48
2022-08-20T18:54:57.321Z,8.88
2022-08-20T19:00:11.735Z,9.95
2022-08-20T19:05:16.226Z,10.00
2022-08-20T19:10:28.220Z,9.85
2022-08-20T19:15:33.881Z,10.82
2022-08-20T19:20:39.742Z,11.15
2022-08-20T19:25:56.730Z,9.63
2022-08-20T19:31:24.553Z,10.10
2022-08-20T19:36:28.105Z,8.02
2022-08-20T19:41:34.383Z,8.88
2022-08-20T19:46:44.498Z,8.73
2022-08-20T19:52:11.671Z,8.48
2022-08-20T19:57:14.912Z,10.17
2022-08-20T20:02:20.434Z,10.00
2022-08-20T20:07:35.823Z,8.75
2022-08-20T20:12:40.227Z,8.15
2022-08-20T20:17:43.403Z,9.30
2022-08-20T20:22:57.259Z,8.48
2022-08-20T20:28:17.638Z,9.27
2022-08-20T20:33:29.909Z,8.45
2022-08-20T20:38:32.334Z,8.45
2022-08-20T20:43:38.908Z,8.60
2022-08-20T20:48:46.308Z,8.63
2022-08-20T20:53:54.652Z,8.65
2022-08-20T20:59:00.207Z,8.48
2022-08-20T21:09:06.405Z,7.53
2022-08-20T21:14:08.381Z,7.55
2022-08-20T21:19:11.198Z,8.50
2022-08-20T21:24:13.155Z,7.68
2022-08-20T21:29:30.540Z,9.43
2022-08-20T21:34:34.377Z,8.73
2022-08-20T21:39:36.421Z,9.05
2022-08-20T21:44:38.525Z,9.25
2022-08-20T21:49:51.757Z,9.27
2022-08-20T21:54:53.671Z,8.98
2022-08-20T21:59:57.344Z,8.07
2022-08-20T22:04:59.141Z,8.65
2022-08-20T22:10:00.922Z,9.60
2022-08-20T22:15:04.022Z,8.57
2022-08-20T22:20:06.445Z,8.77
2022-08-20T22:25:10.267Z,8.77
2022-08-20T22:30:15.244Z,8.00
2022-08-20T22:35:17.570Z,9.23
2022-08-20T22:40:20.106Z,8.85
2022-08-20T22:45:22.005Z,7.80
2022-08-20T22:50:25.505Z,7.03
2022-08-20T22:55:27.449Z,8.23
2022-08-20T23:00:30.352Z,7.43
2022-08-20T23:05:35.033Z,7.97
2022-08-20T23:10:38.596Z,7.80
2022-08-20T23:15:41.504Z,7.38
2022-08-20T23:20:52.788Z,7.72
2022-08-20T23:25:55.557Z,9.02
2022-08-20T23:30:57.389Z,7.07
2022-08-20T23:35:59.687Z,8.50
2022-08-20T23:41:01.853Z,9.50
2022-08-20T23:46:06.724Z,8.15
2022-08-20T23:51:08.762Z,8.30
2022-08-20T23:56:10.736Z,8.23
